createdAt,value
2019-03-31T00:01:07.562Z,12.57
2019-03-31T00:03:26.236Z,13.70
2019-03-31T00:05:55.207Z,13.37
2019-03-31T00:08:26.856Z,12.40
2019-03-31T00:10:55.815Z,12.60
2019-03-31T00:13:24.762Z,13.13
2019-03-31T00:15:53.788Z,12.63
2019-03-31T00:18:22.738Z,13.50
2019-03-31T00:20:51.726Z,13.70
2019-03-31T00:23:20.656Z,13.10
2019-03-31T00:25:51.267Z,13.07
2019-03-31T00:28:20.635Z,12.77
2019-03-31T00:30:49.846Z,11.63
2019-03-31T00:33:18.796Z,11.90
2019-03-31T00:35:47.766Z,12.27
2019-03-31T00:38:18.244Z,12.07
2019-03-31T00:40:47.216Z,12.87
2019-03-31T00:43:16.205Z,13.77
2019-03-31T00:45:45.165Z,13.00
2019-03-31T00:48:14.250Z,11.87
2019-03-31T00:50:43.271Z,13.63
2019-03-31T00:53:12.218Z,13.73
2019-03-31T00:55:41.202Z,13.43
2019-03-31T00:58:10.189Z,13.10
2019-03-31T01:00:47.175Z,12.20
2019-03-31T01:03:18.113Z,11.90
2019-03-31T01:05:47.128Z,11.97
2019-03-31T01:08:17.142Z,12.87
2019-03-31T01:10:46.616Z,12.57
2019-03-31T01:13:15.650Z,12.80
2019-03-31T01:15:44.733Z,13.23
2019-03-31T01:18:14.026Z,12.40
2019-03-31T01:20:44.277Z,11.67
2019-03-31T01:23:13.463Z,12.23
2019-03-31T01:25:42.483Z,12.40
2019-03-31T01:28:11.591Z,12.27
2019-03-31T01:30:40.774Z,11.30
2019-03-31T01:33:09.988Z,12.13
2019-03-31T01:35:40.148Z,12.13
2019-03-31T01:38:09.130Z,12.93
2019-03-31T01:40:38.123Z,12.57
2019-03-31T01:43:07.233Z,12.43
2019-03-31T01:45:37.643Z,12.00
2019-03-31T01:48:09.548Z,12.50
2019-03-31T01:50:38.502Z,12.03
2019-03-31T01:53:07.452Z,12.17
2019-03-31T01:55:36.392Z,11.77
2019-03-31T01:58:06.991Z,12.33
2019-03-31T02:00:39.182Z,13.10
2019-03-31T02:03:08.214Z,12.93
2019-03-31T02:05:37.317Z,13.50
2019-03-31T02:08:07.245Z,13.93
2019-03-31T02:10:37.718Z,13.47
2019-03-31T02:13:07.355Z,13.30
2019-03-31T02:15:36.394Z,14.23
2019-03-31T02:18:05.481Z,13.80
2019-03-31T02:20:34.454Z,14.70
2019-03-31T02:23:03.467Z,14.23
2019-03-31T02:25:33.741Z,14.33
2019-03-31T02:28:02.741Z,13.10
2019-03-31T02:30:31.711Z,13.97
2019-03-31T02:33:00.674Z,13.33
2019-03-31T02:35:32.386Z,13.60
2019-03-31T02:38:00.373Z,15.23
2019-03-31T02:40:29.351Z,14.63
2019-03-31T02:42:58.560Z,17.27
2019-03-31T02:45:27.533Z,16.10
2019-03-31T02:47:56.458Z,14.90
2019-03-31T02:50:47.638Z,13.93
2019-03-31T02:53:17.721Z,14.03
2019-03-31T02:55:51.835Z,13.83
2019-03-31T02:58:23.069Z,13.47
2019-03-31T03:00:52.180Z,13.83
2019-03-31T03:03:21.269Z,15.03
2019-03-31T03:05:50.389Z,14.07
2019-03-31T03:08:19.956Z,14.30
2019-03-31T03:10:52.173Z,14.87
2019-03-31T03:13:24.661Z,13.87
2019-03-31T03:16:08.897Z,14.03
2019-03-31T03:18:37.988Z,13.50
2019-03-31T03:21:06.995Z,13.30
2019-03-31T03:23:35.939Z,12.43
2019-03-31T03:26:07.815Z,14.17
2019-03-31T03:28:36.780Z,14.33
2019-03-31T03:31:13.934Z,13.33
2019-03-31T03:33:39.232Z,14.03
2019-03-31T03:36:07.214Z,14.03
2019-03-31T03:38:36.154Z,12.87
2019-03-31T03:41:05.179Z,12.60
2019-03-31T03:43:34.218Z,14.13
2019-03-31T03:46:03.299Z,13.37
2019-03-31T03:48:32.554Z,13.90
2019-03-31T03:51:01.595Z,14.40
2019-03-31T03:53:32.120Z,12.80
2019-03-31T03:56:01.141Z,13.40
2019-03-31T03:58:30.128Z,13.57
2019-03-31T04:00:59.166Z,13.57
2019-03-31T04:03:30.635Z,13.97
2019-03-31T04:05:58.922Z,13.23
2019-03-31T04:08:27.882Z,13.13
2019-03-31T04:11:08.976Z,14.47
2019-03-31T04:13:37.936Z,14.43
2019-03-31T04:16:06.880Z,15.03
2019-03-31T04:18:35.949Z,14.97
2019-03-31T04:21:05.091Z,15.17
2019-03-31T04:23:34.133Z,14.80
2019-03-31T04:26:03.066Z,14.90
2019-03-31T04:28:32.098Z,15.43
2019-03-31T04:31:01.108Z,17.27
2019-03-31T04:33:48.448Z,16.30
2019-03-31T04:36:00.769Z,18.57
2019-03-31T04:38:29.810Z,17.53
2019-03-31T04:40:58.756Z,18.60
2019-03-31T04:43:27.719Z,19.03
2019-03-31T04:45:56.761Z,19.90
2019-03-31T04:48:25.724Z,23.53
2019-03-31T04:50:54.668Z,37.60
2019-03-31T04:53:23.638Z,36.87
2019-03-31T04:55:52.578Z,33.27
2019-03-31T04:58:21.547Z,39.13
2019-03-31T05:00:50.515Z,37.03
2019-03-31T05:03:19.542Z,37.67
2019-03-31T05:05:48.559Z,36.07
2019-03-31T05:08:17.523Z,36.87
2019-03-31T05:10:46.499Z,36.77
2019-03-31T05:13:15.495Z,35.07
2019-03-31T05:15:44.514Z,35.70
2019-03-31T05:18:13.530Z,36.60
2019-03-31T05:20:42.568Z,35.53
2019-03-31T05:23:11.490Z,35.13
2019-03-31T05:25:40.461Z,35.33
2019-03-31T05:28:09.390Z,33.67
2019-03-31T05:30:38.362Z,34.67
2019-03-31T05:33:07.363Z,35.13
2019-03-31T05:35:36.414Z,35.33
2019-03-31T05:38:05.488Z,36.30
2019-03-31T05:40:34.450Z,35.53
2019-03-31T05:43:03.466Z,35.60
2019-03-31T05:45:32.411Z,35.00
2019-03-31T05:48:01.346Z,36.33
2019-03-31T05:50:30.318Z,35.83
2019-03-31T05:52:59.254Z,36.57
2019-03-31T05:55:28.291Z,37.37
2019-03-31T05:57:57.246Z,38.53
2019-03-31T06:00:31.534Z,37.13
2019-03-31T06:03:00.570Z,39.83
2019-03-31T06:05:29.524Z,38.13
2019-03-31T06:07:59.064Z,39.53
2019-03-31T06:10:28.047Z,37.40
2019-03-31T06:12:56.994Z,37.47
2019-03-31T06:15:25.942Z,40.27
2019-03-31T06:17:54.926Z,37.83
2019-03-31T06:20:23.945Z,38.20
2019-03-31T06:22:53.041Z,37.67
2019-03-31T06:25:21.999Z,34.20
2019-03-31T06:27:51.015Z,30.67
2019-03-31T06:30:20.294Z,29.93
2019-03-31T06:32:49.353Z,28.17
2019-03-31T06:35:18.375Z,27.10
2019-03-31T06:37:47.372Z,27.03
2019-03-31T06:40:16.462Z,26.13
2019-03-31T06:42:45.441Z,25.10
2019-03-31T06:45:14.458Z,28.27
2019-03-31T06:47:43.453Z,26.17
2019-03-31T06:50:12.743Z,27.93
2019-03-31T06:52:41.713Z,27.87
2019-03-31T06:55:10.788Z,27.03
2019-03-31T06:57:39.856Z,27.57
2019-03-31T07:00:09.236Z,29.13
2019-03-31T07:02:38.191Z,27.80
2019-03-31T07:05:07.802Z,27.27
2019-03-31T07:07:36.775Z,27.23
2019-03-31T07:10:07.401Z,29.17
2019-03-31T07:12:36.796Z,28.47
2019-03-31T07:15:09.502Z,28.40
2019-03-31T07:17:38.689Z,28.73
2019-03-31T07:20:08.851Z,28.07
2019-03-31T07:22:37.939Z,27.60
2019-03-31T07:25:08.442Z,27.30
2019-03-31T07:27:38.197Z,26.80
2019-03-31T07:30:09.987Z,29.03
2019-03-31T07:32:38.943Z,27.90
2019-03-31T07:35:18.404Z,28.17
2019-03-31T07:37:47.296Z,27.97
2019-03-31T07:40:12.720Z,28.53
2019-03-31T07:42:41.730Z,28.20
2019-03-31T07:45:11.557Z,27.53
2019-03-31T07:47:40.482Z,25.93
2019-03-31T07:50:17.088Z,26.37
2019-03-31T07:52:46.158Z,27.53
2019-03-31T07:55:15.854Z,24.87
2019-03-31T07:57:44.795Z,26.10
2019-03-31T08:00:18.797Z,25.00
2019-03-31T08:02:47.828Z,24.67
2019-03-31T08:05:31.879Z,20.47
2019-03-31T08:07:48.357Z,23.40
2019-03-31T08:10:19.033Z,21.37
2019-03-31T08:12:47.993Z,20.13
2019-03-31T08:15:17.243Z,19.43
2019-03-31T08:17:46.304Z,19.80
2019-03-31T08:20:17.213Z,17.97
2019-03-31T08:22:46.303Z,15.33
2019-03-31T08:25:16.010Z,16.00
2019-03-31T08:27:44.940Z,15.60
2019-03-31T08:30:15.166Z,16.07
2019-03-31T08:32:44.112Z,17.13
2019-03-31T08:35:13.443Z,16.77
2019-03-31T08:37:42.463Z,15.63
2019-03-31T08:40:12.595Z,15.87
2019-03-31T08:42:41.730Z,15.77
2019-03-31T08:45:11.532Z,15.40
2019-03-31T08:47:40.661Z,15.47
2019-03-31T08:50:12.387Z,15.23
2019-03-31T08:52:41.392Z,14.60
2019-03-31T08:55:10.794Z,13.77
2019-03-31T08:57:39.836Z,13.00
2019-03-31T09:00:12.188Z,12.10
2019-03-31T09:02:41.333Z,11.70
2019-03-31T09:05:11.003Z,10.87
2019-03-31T09:07:41.857Z,10.83
2019-03-31T09:10:11.957Z,11.03
2019-03-31T09:12:41.247Z,12.40
2019-03-31T09:15:12.571Z,12.50
2019-03-31T09:17:41.680Z,12.03
2019-03-31T09:20:12.544Z,11.03
2019-03-31T09:22:41.512Z,11.03
2019-03-31T09:25:10.742Z,10.50
2019-03-31T09:27:39.730Z,10.63
2019-03-31T09:30:10.635Z,10.43
2019-03-31T09:32:39.741Z,11.00
2019-03-31T09:35:09.732Z,9.67
2019-03-31T09:37:38.793Z,11.27
2019-03-31T09:40:10.119Z,10.87
2019-03-31T09:42:39.158Z,10.27
2019-03-31T09:45:08.925Z,9.30
2019-03-31T09:47:38.943Z,9.10
2019-03-31T09:50:16.839Z,8.73
2019-03-31T09:52:44.223Z,9.00
2019-03-31T09:55:13.364Z,9.60
2019-03-31T09:57:42.394Z,8.87
2019-03-31T10:00:17.267Z,8.80
2019-03-31T10:02:46.249Z,9.50
2019-03-31T10:05:15.336Z,9.60
2019-03-31T10:07:45.642Z,9.67
2019-03-31T10:10:31.947Z,9.13
2019-03-31T10:13:01.343Z,9.93
2019-03-31T10:15:30.425Z,8.90
2019-03-31T10:17:59.460Z,8.20
2019-03-31T10:20:31.289Z,7.67
2019-03-31T10:22:59.201Z,7.40
2019-03-31T10:25:28.135Z,8.17
2019-03-31T10:27:57.094Z,8.07
2019-03-31T10:30:39.415Z,7.47
2019-03-31T10:33:08.932Z,8.47
2019-03-31T10:35:38.064Z,8.40
2019-03-31T10:38:07.363Z,7.43
2019-03-31T10:40:36.474Z,7.23
2019-03-31T10:43:05.560Z,7.50
2019-03-31T10:45:34.620Z,7.50
2019-03-31T10:48:03.715Z,6.93
2019-03-31T10:50:32.727Z,6.13
2019-03-31T10:53:01.696Z,6.67
2019-03-31T10:55:30.736Z,6.60
2019-03-31T10:57:59.749Z,6.90
2019-03-31T11:00:38.350Z,6.50
2019-03-31T11:03:07.836Z,5.97
2019-03-31T11:05:37.054Z,5.63
2019-03-31T11:08:06.621Z,5.87
2019-03-31T11:10:36.003Z,5.60
2019-03-31T11:13:05.070Z,5.63
2019-03-31T11:15:34.328Z,5.37
2019-03-31T11:18:03.652Z,5.60
2019-03-31T11:20:32.637Z,5.40
2019-03-31T11:23:08.827Z,4.67
2019-03-31T11:25:37.998Z,4.57
2019-03-31T11:28:06.923Z,4.90
2019-03-31T11:30:35.910Z,4.93
2019-03-31T11:33:07.412Z,4.80
2019-03-31T11:35:35.590Z,5.27
2019-03-31T11:38:04.626Z,5.63
2019-03-31T11:40:33.732Z,4.93
2019-03-31T11:43:02.773Z,5.10
2019-03-31T11:45:31.836Z,5.13
2019-03-31T11:48:00.808Z,8.97
2019-03-31T11:50:29.760Z,6.87
2019-03-31T11:52:58.740Z,6.50
2019-03-31T11:55:27.783Z,6.43
2019-03-31T11:57:56.874Z,5.60
2019-03-31T12:00:27.479Z,5.30
2019-03-31T12:02:56.457Z,4.17
2019-03-31T12:05:25.537Z,4.80
2019-03-31T12:07:54.490Z,4.30
2019-03-31T12:10:23.571Z,5.93
2019-03-31T12:12:52.529Z,4.60
2019-03-31T12:15:21.543Z,4.83
2019-03-31T12:17:50.517Z,4.50
2019-03-31T12:20:20.199Z,5.13
2019-03-31T12:22:49.160Z,5.60
2019-03-31T12:25:19.794Z,6.53
2019-03-31T12:27:48.756Z,6.20
2019-03-31T12:30:20.823Z,6.20
2019-03-31T12:32:49.824Z,6.20
2019-03-31T12:35:18.808Z,6.00
2019-03-31T12:37:48.121Z,5.27
2019-03-31T12:40:32.103Z,5.60
2019-03-31T12:43:01.151Z,6.03
2019-03-31T12:45:30.250Z,5.30
2019-03-31T12:48:01.380Z,5.40
2019-03-31T12:50:30.763Z,4.93
2019-03-31T12:52:59.740Z,5.27
2019-03-31T12:55:28.686Z,4.70
2019-03-31T12:57:57.722Z,4.33
2019-03-31T13:00:26.748Z,4.67
2019-03-31T13:02:55.682Z,4.40
2019-03-31T13:05:24.743Z,4.53
2019-03-31T13:07:56.678Z,4.20
2019-03-31T13:10:24.395Z,4.30
2019-03-31T13:12:53.322Z,4.50
2019-03-31T13:15:22.387Z,3.80
2019-03-31T13:17:51.475Z,4.07
2019-03-31T13:20:20.539Z,4.20
2019-03-31T13:22:49.559Z,3.77
2019-03-31T13:25:18.608Z,2.90
2019-03-31T13:27:47.583Z,2.77
2019-03-31T13:30:16.790Z,2.17
2019-03-31T13:32:45.724Z,2.70
2019-03-31T13:35:14.858Z,2.37
2019-03-31T13:37:43.800Z,2.30
2019-03-31T13:40:13.410Z,2.07
2019-03-31T13:42:42.481Z,2.60
2019-03-31T13:45:11.698Z,1.90
2019-03-31T13:47:40.722Z,1.90
2019-03-31T13:50:10.832Z,1.87
2019-03-31T13:52:39.830Z,1.50
2019-03-31T13:55:09.805Z,1.60
2019-03-31T13:57:40.080Z,1.40
2019-03-31T14:00:11.178Z,1.40
2019-03-31T14:02:40.547Z,1.70
2019-03-31T14:05:10.117Z,2.20
2019-03-31T14:07:39.100Z,1.63
2019-03-31T14:10:08.189Z,1.60
2019-03-31T14:12:37.167Z,1.77
2019-03-31T14:15:18.890Z,1.80
2019-03-31T14:17:41.230Z,1.83
2019-03-31T14:20:10.446Z,1.70
2019-03-31T14:22:39.433Z,1.93
2019-03-31T14:25:08.572Z,1.80
2019-03-31T14:27:37.599Z,1.47
2019-03-31T14:30:07.491Z,2.00
2019-03-31T14:32:36.458Z,2.30
2019-03-31T14:35:06.121Z,2.20
2019-03-31T14:37:35.170Z,2.03
2019-03-31T14:40:04.750Z,2.17
2019-03-31T14:42:33.800Z,1.93
2019-03-31T14:45:02.827Z,1.77
2019-03-31T14:47:31.793Z,1.93
2019-03-31T14:50:00.804Z,2.07
2019-03-31T14:52:29.752Z,2.00
2019-03-31T14:54:58.733Z,2.50
2019-03-31T14:57:27.753Z,1.70
2019-03-31T14:59:56.730Z,2.30
2019-03-31T15:02:25.760Z,1.80
2019-03-31T15:04:54.788Z,2.20
2019-03-31T15:07:23.725Z,2.50
2019-03-31T15:09:52.695Z,2.53
2019-03-31T15:12:21.722Z,3.40
2019-03-31T15:14:50.733Z,2.90
2019-03-31T15:17:19.679Z,3.97
2019-03-31T15:19:48.713Z,2.27
2019-03-31T15:22:17.706Z,2.60
2019-03-31T15:24:46.694Z,6.10
2019-03-31T15:27:15.640Z,4.83
2019-03-31T15:29:44.615Z,2.80
2019-03-31T15:32:13.562Z,6.07
2019-03-31T15:34:42.598Z,3.57
2019-03-31T15:37:11.591Z,2.73
2019-03-31T15:39:40.537Z,4.67
2019-03-31T15:42:09.566Z,3.00
2019-03-31T15:44:38.559Z,5.73
2019-03-31T15:47:07.603Z,3.50
2019-03-31T15:49:36.642Z,2.83
2019-03-31T15:52:08.711Z,3.17
2019-03-31T15:54:36.407Z,3.83
2019-03-31T15:57:05.373Z,3.63
2019-03-31T15:59:34.397Z,2.87
2019-03-31T16:02:03.514Z,2.87
2019-03-31T16:04:32.460Z,3.20
2019-03-31T16:07:01.430Z,3.23
2019-03-31T16:09:30.374Z,3.07
2019-03-31T16:11:59.368Z,9.23
2019-03-31T16:14:28.309Z,4.73
2019-03-31T16:16:57.278Z,2.70
2019-03-31T16:19:26.371Z,4.90
2019-03-31T16:21:55.360Z,3.70
2019-03-31T16:24:25.929Z,3.80
2019-03-31T16:26:54.906Z,5.60
2019-03-31T16:29:23.929Z,3.80
2019-03-31T16:31:52.896Z,4.63
2019-03-31T16:34:21.913Z,3.40
2019-03-31T16:36:50.902Z,3.77
2019-03-31T16:39:19.840Z,3.13
2019-03-31T16:41:48.845Z,2.60
2019-03-31T16:44:17.972Z,2.63
2019-03-31T16:46:46.949Z,2.50
2019-03-31T16:49:16.044Z,1.93
2019-03-31T16:51:45.065Z,2.33
2019-03-31T16:54:14.087Z,2.63
2019-03-31T16:56:43.054Z,2.87
2019-03-31T16:59:12.067Z,5.80
2019-03-31T17:01:41.015Z,10.13
2019-03-31T17:04:10.067Z,4.20
2019-03-31T17:06:39.101Z,4.50
2019-03-31T17:09:08.249Z,2.90
2019-03-31T17:11:37.263Z,2.10
2019-03-31T17:14:06.266Z,2.40
2019-03-31T17:16:35.210Z,2.13
2019-03-31T17:19:04.317Z,1.73
2019-03-31T17:21:33.234Z,2.20
2019-03-31T17:24:02.334Z,1.73
2019-03-31T17:26:31.275Z,1.87
2019-03-31T17:29:00.321Z,2.03
2019-03-31T17:31:29.331Z,2.13
2019-03-31T17:33:58.314Z,1.90
2019-03-31T17:36:27.317Z,2.17
2019-03-31T17:38:56.358Z,2.00
2019-03-31T17:41:25.328Z,2.00
2019-03-31T17:43:54.375Z,1.83
2019-03-31T17:46:23.413Z,1.70
2019-03-31T17:48:52.402Z,1.77
2019-03-31T17:51:21.477Z,1.80
2019-03-31T17:53:50.564Z,1.80
2019-03-31T17:56:19.553Z,1.60
2019-03-31T17:58:48.557Z,1.50
2019-03-31T18:01:17.552Z,1.50
2019-03-31T18:03:46.573Z,2.00
2019-03-31T18:06:15.566Z,1.57
2019-03-31T18:08:44.571Z,1.93
2019-03-31T18:11:13.707Z,1.00
2019-03-31T18:13:42.803Z,1.30
2019-03-31T18:16:11.859Z,1.70
2019-03-31T18:18:40.783Z,1.80
2019-03-31T18:21:09.931Z,1.70
2019-03-31T18:23:39.012Z,1.53
2019-03-31T18:26:08.044Z,1.90
2019-03-31T18:28:36.978Z,1.53
2019-03-31T18:31:05.946Z,1.87
2019-03-31T18:33:34.884Z,1.67
2019-03-31T18:36:03.993Z,2.87
2019-03-31T18:38:33.097Z,1.83
2019-03-31T18:41:03.781Z,1.53
2019-03-31T18:43:32.837Z,1.57
2019-03-31T18:46:02.782Z,1.90
2019-03-31T18:48:31.883Z,2.07
2019-03-31T18:51:00.834Z,2.10
2019-03-31T18:53:46.571Z,2.77
2019-03-31T18:56:33.488Z,3.20
2019-03-31T18:59:20.323Z,1.50
2019-03-31T19:01:59.789Z,1.17
2019-03-31T19:04:42.356Z,1.83
2019-03-31T19:07:29.600Z,1.60
2019-03-31T19:10:03.012Z,1.90
2019-03-31T19:12:39.095Z,2.10
2019-03-31T19:15:12.522Z,1.63
2019-03-31T19:17:49.176Z,1.50
2019-03-31T19:20:20.533Z,1.60
2019-03-31T19:23:00.514Z,1.80
2019-03-31T19:25:31.091Z,1.30
2019-03-31T19:28:04.138Z,1.20
2019-03-31T19:30:47.037Z,2.00
2019-03-31T19:33:35.555Z,2.10
2019-03-31T19:36:06.263Z,1.30
2019-03-31T19:38:39.623Z,1.57
2019-03-31T19:41:25.515Z,1.70
2019-03-31T19:44:02.243Z,1.40
2019-03-31T19:46:41.558Z,2.10
2019-03-31T19:49:23.794Z,1.80
2019-03-31T19:52:10.559Z,1.87
2019-03-31T19:54:43.963Z,1.60
2019-03-31T19:57:14.613Z,1.20
2019-03-31T19:59:45.227Z,2.20
2019-03-31T20:02:25.159Z,1.80
2019-03-31T20:05:12.339Z,1.53
2019-03-31T20:07:42.929Z,1.27
2019-03-31T20:10:28.722Z,1.50
2019-03-31T20:12:59.362Z,1.87
2019-03-31T20:15:45.152Z,1.70
2019-03-31T20:18:15.710Z,1.57
2019-03-31T20:20:49.044Z,1.10
2019-03-31T20:23:28.733Z,1.20
2019-03-31T20:26:14.283Z,1.40
2019-03-31T20:29:03.148Z,1.70
2019-03-31T20:31:39.760Z,1.57
2019-03-31T20:34:10.325Z,1.60
2019-03-31T20:36:43.678Z,1.53
2019-03-31T20:39:23.054Z,1.50
2019-03-31T20:41:53.669Z,1.20
2019-03-31T20:44:24.964Z,1.83
2019-03-31T20:46:53.920Z,1.83
2019-03-31T20:49:22.863Z,1.37
2019-03-31T20:51:51.825Z,1.60
2019-03-31T20:54:20.840Z,1.53
2019-03-31T20:56:49.882Z,1.10
2019-03-31T20:59:18.845Z,1.47
2019-03-31T21:01:47.790Z,1.30
2019-03-31T21:04:16.729Z,1.50
2019-03-31T21:06:45.677Z,1.40
2019-03-31T21:09:14.701Z,1.67
2019-03-31T21:11:43.643Z,1.50
2019-03-31T21:14:12.676Z,1.63
2019-03-31T21:16:41.630Z,1.33
2019-03-31T21:19:10.567Z,1.73
2019-03-31T21:21:42.184Z,1.37
2019-03-31T21:24:11.383Z,1.73
2019-03-31T21:26:40.340Z,1.60
2019-03-31T21:29:09.287Z,1.33
2019-03-31T21:31:38.230Z,1.83
2019-03-31T21:34:09.420Z,1.93
2019-03-31T21:36:38.344Z,1.70
2019-03-31T21:39:07.797Z,1.47
2019-03-31T21:41:36.735Z,1.50
2019-03-31T21:44:05.769Z,1.90
2019-03-31T21:46:34.775Z,1.60
2019-03-31T21:49:03.986Z,1.80
2019-03-31T21:51:32.988Z,1.77
2019-03-31T21:54:02.023Z,1.87
2019-03-31T21:56:30.943Z,1.50
2019-03-31T21:59:00.003Z,1.70
2019-03-31T22:01:30.635Z,1.67
2019-03-31T22:03:59.584Z,1.73
2019-03-31T22:06:28.568Z,1.63
2019-03-31T22:08:57.546Z,1.37
2019-03-31T22:11:26.478Z,1.53
2019-03-31T22:13:57.090Z,1.63
2019-03-31T22:16:26.038Z,2.17
2019-03-31T22:18:55.094Z,1.50
2019-03-31T22:21:24.011Z,1.77
2019-03-31T22:23:58.096Z,1.47
2019-03-31T22:26:23.612Z,1.53
2019-03-31T22:28:54.099Z,1.23
2019-03-31T22:31:23.207Z,1.83
2019-03-31T22:33:52.169Z,1.80
2019-03-31T22:36:21.120Z,1.30
2019-03-31T22:38:53.933Z,1.37
2019-03-31T22:41:23.061Z,1.83
2019-03-31T22:43:51.977Z,1.23
2019-03-31T22:46:20.924Z,1.57
2019-03-31T22:48:49.871Z,1.37
2019-03-31T22:51:18.942Z,1.20
2019-03-31T22:53:47.862Z,1.13
2019-03-31T22:56:16.822Z,2.27
2019-03-31T22:58:45.835Z,1.43
2019-03-31T23:01:14.860Z,1.87
2019-03-31T23:03:43.789Z,2.00
2019-03-31T23:06:12.735Z,1.50
2019-03-31T23:08:41.680Z,1.37
2019-03-31T23:11:10.627Z,2.10
2019-03-31T23:13:39.628Z,1.20
2019-03-31T23:16:11.388Z,1.40
2019-03-31T23:18:40.322Z,1.40
2019-03-31T23:21:09.338Z,1.73
2019-03-31T23:23:38.278Z,1.80
2019-03-31T23:26:07.244Z,1.33
2019-03-31T23:28:37.809Z,1.40
2019-03-31T23:31:06.772Z,1.47
2019-03-31T23:33:35.696Z,1.50
2019-03-31T23:36:04.654Z,1.50
2019-03-31T23:38:33.594Z,1.40
2019-03-31T23:41:02.565Z,1.20
2019-03-31T23:43:31.475Z,1.20
2019-03-31T23:46:00.431Z,1.30
2019-03-31T23:48:31.250Z,1.57
2019-03-31T23:51:00.193Z,1.43
2019-03-31T23:53:29.123Z,1.67
2019-03-31T23:55:58.070Z,1.53
2019-03-31T23:58:27.014Z,1.50
